sensor_id;sensor_type;location;lat;lon;timestamp;temperature;humidity
26051;DHT22;13825;53.496;10.020;2023-05-10T00:00:11;12.60;99.90
26051;DHT22;13825;53.496;10.020;2023-05-10T00:02:40;12.50;99.90
26051;DHT22;13825;53.496;10.020;2023-05-10T00:05:08;12.50;99.90
26051;DHT22;13825;53.496;10.020;2023-05-10T00:07:36;12.50;99.90
26051;DHT22;13825;53.496;10.020;2023-05-10T00:10:04;12.40;99.90
26051;DHT22;13825;53.496;10.020;2023-05-10T00:12:31;12.40;99.90
26051;DHT22;13825;53.496;10.020;2023-05-10T00:14:58;12.30;99.90
26051;DHT22;13825;53.496;10.020;2023-05-10T00:17:25;12.30;99.90
26051;DHT22;13825;53.496;10.020;2023-05-10T00:19:52;12.30;99.90
26051;DHT22;13825;53.496;10.020;2023-05-10T00:22:19;12.40;99.90
26051;DHT22;13825;53.496;10.020;2023-05-10T00:24:50;12.20;99.90
26051;DHT22;13825;53.496;10.020;2023-05-10T00:27:17;12.10;99.90
26051;DHT22;13825;53.496;10.020;2023-05-10T00:29:44;12.00;99.90
26051;DHT22;13825;53.496;10.020;2023-05-10T00:32:11;12.00;99.90
26051;DHT22;13825;53.496;10.020;2023-05-10T00:34:39;11.90;99.90
26051;DHT22;13825;53.496;10.020;2023-05-10T00:37:06;11.80;99.90
26051;DHT22;13825;53.496;10.020;2023-05-10T00:39:33;11.70;99.90
26051;DHT22;13825;53.496;10.020;2023-05-10T00:42:02;11.70;99.90
26051;DHT22;13825;53.496;10.020;2023-05-10T00:44:29;11.70;99.90
26051;DHT22;13825;53.496;10.020;2023-05-10T00:46:57;11.60;99.90
26051;DHT22;13825;53.496;10.020;2023-05-10T00:49:24;11.50;99.90
26051;DHT22;13825;53.496;10.020;2023-05-10T00:51:52;11.40;99.90
26051;DHT22;13825;53.496;10.020;2023-05-10T00:54:19;11.40;1.00
26051;DHT22;13825;53.496;10.020;2023-05-10T00:56:46;11.30;99.90
26051;DHT22;13825;53.496;10.020;2023-05-10T00:59:16;11.30;1.00
26051;DHT22;13825;53.496;10.020;2023-05-10T01:01:44;11.20;1.00
26051;DHT22;13825;53.496;10.020;2023-05-10T01:04:11;11.20;1.00
26051;DHT22;13825;53.496;10.020;2023-05-10T01:06:38;11.20;1.00
26051;DHT22;13825;53.496;10.020;2023-05-10T01:09:06;11.10;1.00
26051;DHT22;13825;53.496;10.020;2023-05-10T01:11:33;11.10;1.00
26051;DHT22;13825;53.496;10.020;2023-05-10T01:14:01;11.00;1.00
26051;DHT22;13825;53.496;10.020;2023-05-10T01:16:33;11.00;1.00
26051;DHT22;13825;53.496;10.020;2023-05-10T01:19:01;11.00;1.00
26051;DHT22;13825;53.496;10.020;2023-05-10T01:21:36;11.10;1.00
26051;DHT22;13825;53.496;10.020;2023-05-10T01:24:28;10.90;1.00
26051;DHT22;13825;53.496;10.020;2023-05-10T01:27:25;10.90;1.00
26051;DHT22;13825;53.496;10.020;2023-05-10T01:33:10;10.90;1.00
26051;DHT22;13825;53.496;10.020;2023-05-10T01:35:41;10.80;1.00
26051;DHT22;13825;53.496;10.020;2023-05-10T01:38:17;10.80;1.00
26051;DHT22;13825;53.496;10.020;2023-05-10T01:40:52;10.70;1.00
26051;DHT22;13825;53.496;10.020;2023-05-10T01:43:28;10.90;1.00
26051;DHT22;13825;53.496;10.020;2023-05-10T01:46:02;10.90;1.00
26051;DHT22;13825;53.496;10.020;2023-05-10T01:48:38;10.80;1.00
26051;DHT22;13825;53.496;10.020;2023-05-10T01:51:09;10.80;1.00
26051;DHT22;13825;53.496;10.020;2023-05-10T01:53:37;10.80;1.00
26051;DHT22;13825;53.496;10.020;2023-05-10T01:56:07;10.70;1.00
26051;DHT22;13825;53.496;10.020;2023-05-10T01:58:36;10.70;1.00
26051;DHT22;13825;53.496;10.020;2023-05-10T02:01:06;10.70;1.00
26051;DHT22;13825;53.496;10.020;2023-05-10T02:03:37;10.70;1.00
26051;DHT22;13825;53.496;10.020;2023-05-10T02:06:06;10.70;1.00
26051;DHT22;13825;53.496;10.020;2023-05-10T02:08:34;10.70;1.00
26051;DHT22;13825;53.496;10.020;2023-05-10T02:11:02;10.60;1.00
26051;DHT22;13825;53.496;10.020;2023-05-10T02:13:31;10.70;1.00
26051;DHT22;13825;53.496;10.020;2023-05-10T02:16:02;10.80;1.00
26051;DHT22;13825;53.496;10.020;2023-05-10T02:18:30;10.70;1.00
26051;DHT22;13825;53.496;10.020;2023-05-10T02:21:00;10.70;1.00
26051;DHT22;13825;53.496;10.020;2023-05-10T02:23:28;10.70;1.00
26051;DHT22;13825;53.496;10.020;2023-05-10T02:25:57;10.70;1.00
26051;DHT22;13825;53.496;10.020;2023-05-10T02:28:26;10.70;1.00
26051;DHT22;13825;53.496;10.020;2023-05-10T02:30:55;10.60;1.00
26051;DHT22;13825;53.496;10.020;2023-05-10T02:33:23;10.60;1.00
26051;DHT22;13825;53.496;10.020;2023-05-10T02:35:51;10.60;99.90
26051;DHT22;13825;53.496;10.020;2023-05-10T02:38:20;10.60;1.00
26051;DHT22;13825;53.496;10.020;2023-05-10T02:40:51;10.60;1.00
26051;DHT22;13825;53.496;10.020;2023-05-10T02:43:18;10.50;1.00
26051;DHT22;13825;53.496;10.020;2023-05-10T02:45:47;10.60;7.30
26051;DHT22;13825;53.496;10.020;2023-05-10T02:48:15;10.50;19.50
26051;DHT22;13825;53.496;10.020;2023-05-10T02:50:44;10.60;99.90
26051;DHT22;13825;53.496;10.020;2023-05-10T02:53:15;10.50;45.30
26051;DHT22;13825;53.496;10.020;2023-05-10T02:55:50;10.50;99.90
26051;DHT22;13825;53.496;10.020;2023-05-10T02:58:18;10.50;99.90
26051;DHT22;13825;53.496;10.020;2023-05-10T03:00:46;10.40;99.90
26051;DHT22;13825;53.496;10.020;2023-05-10T03:03:13;10.40;99.90
26051;DHT22;13825;53.496;10.020;2023-05-10T03:05:40;10.40;99.90
26051;DHT22;13825;53.496;10.020;2023-05-10T03:08:07;10.40;99.90
26051;DHT22;13825;53.496;10.020;2023-05-10T03:10:41;10.50;99.90
26051;DHT22;13825;53.496;10.020;2023-05-10T03:13:19;10.40;99.90
26051;DHT22;13825;53.496;10.020;2023-05-10T03:15:57;10.40;99.90
26051;DHT22;13825;53.496;10.020;2023-05-10T03:18:32;10.50;1.00
26051;DHT22;13825;53.496;10.020;2023-05-10T03:21:03;10.40;99.90
26051;DHT22;13825;53.496;10.020;2023-05-10T03:23:35;10.30;99.90
26051;DHT22;13825;53.496;10.020;2023-05-10T03:26:07;10.40;99.90
26051;DHT22;13825;53.496;10.020;2023-05-10T03:28:36;10.40;2.30
26051;DHT22;13825;53.496;10.020;2023-05-10T03:31:04;10.40;99.90
26051;DHT22;13825;53.496;10.020;2023-05-10T03:33:32;10.40;99.90
26051;DHT22;13825;53.496;10.020;2023-05-10T03:35:59;10.40;99.90
26051;DHT22;13825;53.496;10.020;2023-05-10T03:38:26;10.50;99.90
26051;DHT22;13825;53.496;10.020;2023-05-10T03:40:53;10.40;1.00
26051;DHT22;13825;53.496;10.020;2023-05-10T03:43:21;10.40;55.90
26051;DHT22;13825;53.496;10.020;2023-05-10T03:45:49;10.30;82.60
26051;DHT22;13825;53.496;10.020;2023-05-10T03:48:16;10.30;49.80
26051;DHT22;13825;53.496;10.020;2023-05-10T03:50:43;10.40;99.90
26051;DHT22;13825;53.496;10.020;2023-05-10T03:53:10;10.30;99.90
26051;DHT22;13825;53.496;10.020;2023-05-10T03:55:37;10.40;75.80
26051;DHT22;13825;53.496;10.020;2023-05-10T03:58:04;10.40;99.90
26051;DHT22;13825;53.496;10.020;2023-05-10T04:00:31;10.50;99.90
26051;DHT22;13825;53.496;10.020;2023-05-10T04:02:59;10.50;1.00
26051;DHT22;13825;53.496;10.020;2023-05-10T04:05:26;10.50;99.90
26051;DHT22;13825;53.496;10.020;2023-05-10T04:07:53;10.70;99.90
26051;DHT22;13825;53.496;10.020;2023-05-10T04:10:20;10.60;99.90
26051;DHT22;13825;53.496;10.020;2023-05-10T04:12:47;10.60;1.00
26051;DHT22;13825;53.496;10.020;2023-05-10T04:15:14;10.60;99.90
26051;DHT22;13825;53.496;10.020;2023-05-10T04:17:41;10.70;99.90
26051;DHT22;13825;53.496;10.020;2023-05-10T04:20:11;10.70;99.90
26051;DHT22;13825;53.496;10.020;2023-05-10T04:22:38;10.70;99.90
26051;DHT22;13825;53.496;10.020;2023-05-10T04:25:06;10.80;99.90
26051;DHT22;13825;53.496;10.020;2023-05-10T04:27:33;10.80;99.90
26051;DHT22;13825;53.496;10.020;2023-05-10T04:30:00;10.80;99.90
26051;DHT22;13825;53.496;10.020;2023-05-10T04:32:27;10.90;99.90
26051;DHT22;13825;53.496;10.020;2023-05-10T04:34:54;10.90;99.90
26051;DHT22;13825;53.496;10.020;2023-05-10T04:37:23;10.90;99.90
26051;DHT22;13825;53.496;10.020;2023-05-10T04:39:49;11.00;99.90
26051;DHT22;13825;53.496;10.020;2023-05-10T04:42:17;11.00;99.90
26051;DHT22;13825;53.496;10.020;2023-05-10T04:44:43;11.10;99.90
26051;DHT22;13825;53.496;10.020;2023-05-10T04:47:10;11.10;99.90
26051;DHT22;13825;53.496;10.020;2023-05-10T04:49:38;11.20;99.90
26051;DHT22;13825;53.496;10.020;2023-05-10T04:52:05;11.20;99.90
26051;DHT22;13825;53.496;10.020;2023-05-10T04:54:33;11.40;99.90
26051;DHT22;13825;53.496;10.020;2023-05-10T04:57:00;11.50;99.90
26051;DHT22;13825;53.496;10.020;2023-05-10T04:59:27;11.50;99.90
26051;DHT22;13825;53.496;10.020;2023-05-10T05:01:54;11.70;99.90
26051;DHT22;13825;53.496;10.020;2023-05-10T05:04:21;11.70;99.90
26051;DHT22;13825;53.496;10.020;2023-05-10T05:06:48;11.90;99.90
26051;DHT22;13825;53.496;10.020;2023-05-10T05:09:15;11.90;24.20
26051;DHT22;13825;53.496;10.020;2023-05-10T05:11:44;11.90;40.60
26051;DHT22;13825;53.496;10.020;2023-05-10T05:14:11;12.10;1.00
26051;DHT22;13825;53.496;10.020;2023-05-10T05:16:38;12.20;99.90
26051;DHT22;13825;53.496;10.020;2023-05-10T05:19:04;12.30;91.90
26051;DHT22;13825;53.496;10.020;2023-05-10T05:21:31;12.30;99.90
26051;DHT22;13825;53.496;10.020;2023-05-10T05:23:58;12.40;68.90
26051;DHT22;13825;53.496;10.020;2023-05-10T05:26:26;12.50;99.90
26051;DHT22;13825;53.496;10.020;2023-05-10T05:28:55;12.60;99.90
26051;DHT22;13825;53.496;10.020;2023-05-10T05:31:22;12.70;99.90
26051;DHT22;13825;53.496;10.020;2023-05-10T05:33:48;12.70;99.90
26051;DHT22;13825;53.496;10.020;2023-05-10T05:36:15;12.70;24.60
26051;DHT22;13825;53.496;10.020;2023-05-10T05:38:42;12.90;62.20
26051;DHT22;13825;53.496;10.020;2023-05-10T05:41:09;13.00;68.10
26051;DHT22;13825;53.496;10.020;2023-05-10T05:43:36;13.10;1.00
26051;DHT22;13825;53.496;10.020;2023-05-10T05:46:05;13.30;1.00
26051;DHT22;13825;53.496;10.020;2023-05-10T05:48:32;13.40;37.50
26051;DHT22;13825;53.496;10.020;2023-05-10T05:50:59;13.50;1.00
26051;DHT22;13825;53.496;10.020;2023-05-10T05:53:28;13.70;1.00
26051;DHT22;13825;53.496;10.020;2023-05-10T05:55:57;13.80;99.90
26051;DHT22;13825;53.496;10.020;2023-05-10T05:58:24;13.80;1.00
26051;DHT22;13825;53.496;10.020;2023-05-10T06:00:52;13.90;99.90
26051;DHT22;13825;53.496;10.020;2023-05-10T06:03:20;13.90;38.60
26051;DHT22;13825;53.496;10.020;2023-05-10T06:05:47;14.10;1.00
26051;DHT22;13825;53.496;10.020;2023-05-10T06:08:14;14.30;99.90
26051;DHT22;13825;53.496;10.020;2023-05-10T06:10:41;14.30;40.50
26051;DHT22;13825;53.496;10.020;2023-05-10T06:13:08;14.40;85.80
26051;DHT22;13825;53.496;10.020;2023-05-10T06:15:35;14.50;85.10
26051;DHT22;13825;53.496;10.020;2023-05-10T06:18:02;14.40;1.00
26051;DHT22;13825;53.496;10.020;2023-05-10T06:20:30;14.50;99.90
26051;DHT22;13825;53.496;10.020;2023-05-10T06:22:58;14.50;99.90
26051;DHT22;13825;53.496;10.020;2023-05-10T06:25:25;14.70;69.50
26051;DHT22;13825;53.496;10.020;2023-05-10T06:27:52;14.60;99.90
26051;DHT22;13825;53.496;10.020;2023-05-10T06:30:24;14.70;99.90
26051;DHT22;13825;53.496;10.020;2023-05-10T06:32:54;14.70;99.90
26051;DHT22;13825;53.496;10.020;2023-05-10T06:35:21;14.80;99.90
26051;DHT22;13825;53.496;10.020;2023-05-10T06:37:50;14.80;63.00
26051;DHT22;13825;53.496;10.020;2023-05-10T06:40:17;14.90;1.00
26051;DHT22;13825;53.496;10.020;2023-05-10T06:42:47;15.10;8.90
26051;DHT22;13825;53.496;10.020;2023-05-10T06:45:16;15.20;1.00
26051;DHT22;13825;53.496;10.020;2023-05-10T06:47:43;15.50;73.10
26051;DHT22;13825;53.496;10.020;2023-05-10T06:50:11;15.70;99.90
26051;DHT22;13825;53.496;10.020;2023-05-10T06:52:38;15.70;1.00
26051;DHT22;13825;53.496;10.020;2023-05-10T06:55:08;15.90;1.00
26051;DHT22;13825;53.496;10.020;2023-05-10T06:57:35;15.90;99.90
26051;DHT22;13825;53.496;10.020;2023-05-10T07:00:02;16.20;99.90
26051;DHT22;13825;53.496;10.020;2023-05-10T07:02:30;16.40;7.50
26051;DHT22;13825;53.496;10.020;2023-05-10T07:04:57;16.50;1.00
26051;DHT22;13825;53.496;10.020;2023-05-10T07:07:24;16.60;1.00
26051;DHT22;13825;53.496;10.020;2023-05-10T07:09:51;16.50;99.90
26051;DHT22;13825;53.496;10.020;2023-05-10T07:12:19;16.70;1.00
26051;DHT22;13825;53.496;10.020;2023-05-10T07:14:46;16.80;1.00
26051;DHT22;13825;53.496;10.020;2023-05-10T07:17:13;16.90;1.00
26051;DHT22;13825;53.496;10.020;2023-05-10T07:19:40;16.90;1.00
26051;DHT22;13825;53.496;10.020;2023-05-10T07:22:07;16.80;1.00
26051;DHT22;13825;53.496;10.020;2023-05-10T07:24:35;16.70;1.00
26051;DHT22;13825;53.496;10.020;2023-05-10T07:27:02;16.70;1.00
26051;DHT22;13825;53.496;10.020;2023-05-10T07:29:31;16.70;1.00
26051;DHT22;13825;53.496;10.020;2023-05-10T07:31:58;16.80;99.90
26051;DHT22;13825;53.496;10.020;2023-05-10T07:34:25;16.80;1.00
26051;DHT22;13825;53.496;10.020;2023-05-10T07:36:52;16.70;1.00
26051;DHT22;13825;53.496;10.020;2023-05-10T07:39:19;16.80;1.00
26051;DHT22;13825;53.496;10.020;2023-05-10T07:41:46;16.60;1.00
26051;DHT22;13825;53.496;10.020;2023-05-10T07:44:14;16.60;1.00
26051;DHT22;13825;53.496;10.020;2023-05-10T07:46:45;16.80;1.00
26051;DHT22;13825;53.496;10.020;2023-05-10T07:49:12;16.80;1.00
26051;DHT22;13825;53.496;10.020;2023-05-10T07:51:38;16.90;1.00
26051;DHT22;13825;53.496;10.020;2023-05-10T07:54:05;16.90;1.00
26051;DHT22;13825;53.496;10.020;2023-05-10T07:56:33;16.80;1.00
26051;DHT22;13825;53.496;10.020;2023-05-10T07:59:01;16.80;1.00
26051;DHT22;13825;53.496;10.020;2023-05-10T08:01:30;16.80;1.00
26051;DHT22;13825;53.496;10.020;2023-05-10T08:03:59;17.00;99.90
26051;DHT22;13825;53.496;10.020;2023-05-10T08:06:27;17.00;1.00
26051;DHT22;13825;53.496;10.020;2023-05-10T08:08:55;16.80;1.00
26051;DHT22;13825;53.496;10.020;2023-05-10T08:11:23;16.70;1.00
26051;DHT22;13825;53.496;10.020;2023-05-10T08:13:50;16.90;1.00
26051;DHT22;13825;53.496;10.020;2023-05-10T08:16:18;16.90;1.00
26051;DHT22;13825;53.496;10.020;2023-05-10T08:18:46;17.00;1.00
26051;DHT22;13825;53.496;10.020;2023-05-10T08:21:15;17.20;1.00
26051;DHT22;13825;53.496;10.020;2023-05-10T08:23:45;17.10;1.00
26051;DHT22;13825;53.496;10.020;2023-05-10T08:26:13;17.20;1.00
26051;DHT22;13825;53.496;10.020;2023-05-10T08:28:39;17.30;1.00
26051;DHT22;13825;53.496;10.020;2023-05-10T08:31:06;17.40;1.00
26051;DHT22;13825;53.496;10.020;2023-05-10T08:33:33;17.40;1.00
26051;DHT22;13825;53.496;10.020;2023-05-10T08:36:00;17.50;1.00
26051;DHT22;13825;53.496;10.020;2023-05-10T08:38:28;17.70;1.00
26051;DHT22;13825;53.496;10.020;2023-05-10T08:40:55;17.60;1.00
26051;DHT22;13825;53.496;10.020;2023-05-10T08:43:27;17.60;1.00
26051;DHT22;13825;53.496;10.020;2023-05-10T08:45:55;17.70;1.00
26051;DHT22;13825;53.496;10.020;2023-05-10T08:48:23;17.60;1.00
26051;DHT22;13825;53.496;10.020;2023-05-10T08:50:53;17.80;1.00
26051;DHT22;13825;53.496;10.020;2023-05-10T08:53:22;18.00;1.00
26051;DHT22;13825;53.496;10.020;2023-05-10T08:55:52;17.90;1.00
26051;DHT22;13825;53.496;10.020;2023-05-10T08:58:19;18.00;1.00
26051;DHT22;13825;53.496;10.020;2023-05-10T09:00:48;17.90;1.00
26051;DHT22;13825;53.496;10.020;2023-05-10T09:03:16;17.90;63.20
26051;DHT22;13825;53.496;10.020;2023-05-10T09:05:44;18.10;1.00
26051;DHT22;13825;53.496;10.020;2023-05-10T09:08:12;18.20;20.10
26051;DHT22;13825;53.496;10.020;2023-05-10T09:10:42;18.20;1.00
26051;DHT22;13825;53.496;10.020;2023-05-10T09:13:12;18.20;32.50
26051;DHT22;13825;53.496;10.020;2023-05-10T09:15:39;18.20;1.00
26051;DHT22;13825;53.496;10.020;2023-05-10T09:18:06;18.00;1.00
26051;DHT22;13825;53.496;10.020;2023-05-10T09:20:33;17.80;1.00
26051;DHT22;13825;53.496;10.020;2023-05-10T09:23:00;17.40;1.00
26051;DHT22;13825;53.496;10.020;2023-05-10T09:25:27;17.50;1.00
26051;DHT22;13825;53.496;10.020;2023-05-10T09:27:55;17.30;1.00
26051;DHT22;13825;53.496;10.020;2023-05-10T09:30:28;17.40;1.00
26051;DHT22;13825;53.496;10.020;2023-05-10T09:32:57;17.30;1.00
26051;DHT22;13825;53.496;10.020;2023-05-10T09:35:26;16.70;1.00
26051;DHT22;13825;53.496;10.020;2023-05-10T09:37:54;16.50;1.00
26051;DHT22;13825;53.496;10.020;2023-05-10T09:40:23;16.20;1.00
26051;DHT22;13825;53.496;10.020;2023-05-10T09:42:54;16.10;1.00
26051;DHT22;13825;53.496;10.020;2023-05-10T09:45:26;16.00;8.80
26051;DHT22;13825;53.496;10.020;2023-05-10T09:47:53;15.80;99.90
26051;DHT22;13825;53.496;10.020;2023-05-10T09:50:21;15.70;99.90
26051;DHT22;13825;53.496;10.020;2023-05-10T09:52:49;15.70;99.90
26051;DHT22;13825;53.496;10.020;2023-05-10T09:55:18;15.60;1.00
26051;DHT22;13825;53.496;10.020;2023-05-10T09:57:46;15.50;99.90
26051;DHT22;13825;53.496;10.020;2023-05-10T10:00:17;15.30;1.00
26051;DHT22;13825;53.496;10.020;2023-05-10T10:02:48;15.10;99.90
26051;DHT22;13825;53.496;10.020;2023-05-10T10:05:15;15.00;1.00
26051;DHT22;13825;53.496;10.020;2023-05-10T10:07:42;15.00;99.90
26051;DHT22;13825;53.496;10.020;2023-05-10T10:10:10;14.90;1.00
26051;DHT22;13825;53.496;10.020;2023-05-10T10:12:39;14.90;21.30
26051;DHT22;13825;53.496;10.020;2023-05-10T10:15:08;15.00;99.90
26051;DHT22;13825;53.496;10.020;2023-05-10T10:17:36;14.90;99.90
26051;DHT22;13825;53.496;10.020;2023-05-10T10:20:07;14.80;99.90
26051;DHT22;13825;53.496;10.020;2023-05-10T10:22:35;14.80;99.90
26051;DHT22;13825;53.496;10.020;2023-05-10T10:25:04;14.60;1.00
26051;DHT22;13825;53.496;10.020;2023-05-10T10:27:37;14.60;99.90
26051;DHT22;13825;53.496;10.020;2023-05-10T10:30:16;14.80;1.00
26051;DHT22;13825;53.496;10.020;2023-05-10T10:33:01;14.90;99.90
26051;DHT22;13825;53.496;10.020;2023-05-10T10:35:35;15.00;99.90
26051;DHT22;13825;53.496;10.020;2023-05-10T10:38:02;15.00;1.00
26051;DHT22;13825;53.496;10.020;2023-05-10T10:40:31;15.00;99.90
26051;DHT22;13825;53.496;10.020;2023-05-10T10:42:59;15.10;99.90
26051;DHT22;13825;53.496;10.020;2023-05-10T10:46:11;15.00;1.00
26051;DHT22;13825;53.496;10.020;2023-05-10T10:48:39;15.00;1.00
26051;DHT22;13825;53.496;10.020;2023-05-10T10:51:07;14.90;1.00
26051;DHT22;13825;53.496;10.020;2023-05-10T10:53:35;15.00;1.00
26051;DHT22;13825;53.496;10.020;2023-05-10T10:56:07;15.00;1.00
26051;DHT22;13825;53.496;10.020;2023-05-10T10:58:35;15.20;99.90
26051;DHT22;13825;53.496;10.020;2023-05-10T11:37:14;15.40;1.00
26051;DHT22;13825;53.496;10.020;2023-05-10T11:47:31;15.00;99.90
26051;DHT22;13825;53.496;10.020;2023-05-10T11:50:23;14.90;99.90
26051;DHT22;13825;53.496;10.020;2023-05-10T12:18:30;16.10;1.00
26051;DHT22;13825;53.496;10.020;2023-05-10T12:21:03;16.10;1.00
26051;DHT22;13825;53.496;10.020;2023-05-10T12:23:30;16.20;99.90
26051;DHT22;13825;53.496;10.020;2023-05-10T12:26:02;16.30;1.00
26051;DHT22;13825;53.496;10.020;2023-05-10T12:28:30;16.40;17.20
26051;DHT22;13825;53.496;10.020;2023-05-10T12:30:57;16.40;99.90
26051;DHT22;13825;53.496;10.020;2023-05-10T12:33:24;16.60;99.90
26051;DHT22;13825;53.496;10.020;2023-05-10T12:35:54;16.50;99.90
26051;DHT22;13825;53.496;10.020;2023-05-10T12:38:26;16.40;99.90
26051;DHT22;13825;53.496;10.020;2023-05-10T12:40:55;16.50;99.90
26051;DHT22;13825;53.496;10.020;2023-05-10T12:43:22;16.60;99.90
26051;DHT22;13825;53.496;10.020;2023-05-10T12:45:49;16.80;99.90
26051;DHT22;13825;53.496;10.020;2023-05-10T12:48:16;16.90;99.90
26051;DHT22;13825;53.496;10.020;2023-05-10T12:50:43;16.90;99.90
26051;DHT22;13825;53.496;10.020;2023-05-10T12:53:12;17.00;99.90
26051;DHT22;13825;53.496;10.020;2023-05-10T12:55:39;17.20;99.90
26051;DHT22;13825;53.496;10.020;2023-05-10T12:58:06;17.10;99.90
26051;DHT22;13825;53.496;10.020;2023-05-10T13:00:33;17.30;99.90
26051;DHT22;13825;53.496;10.020;2023-05-10T13:03:06;17.20;99.90
26051;DHT22;13825;53.496;10.020;2023-05-10T13:05:33;17.10;99.90
26051;DHT22;13825;53.496;10.020;2023-05-10T13:08:00;17.00;99.90
26051;DHT22;13825;53.496;10.020;2023-05-10T13:10:30;17.20;99.90
26051;DHT22;13825;53.496;10.020;2023-05-10T13:12:57;17.20;99.90
26051;DHT22;13825;53.496;10.020;2023-05-10T13:15:24;17.20;99.90
26051;DHT22;13825;53.496;10.020;2023-05-10T13:17:51;17.20;99.90
26051;DHT22;13825;53.496;10.020;2023-05-10T13:20:18;17.50;99.90
26051;DHT22;13825;53.496;10.020;2023-05-10T13:22:45;17.50;99.90
26051;DHT22;13825;53.496;10.020;2023-05-10T13:25:12;17.50;99.90
26051;DHT22;13825;53.496;10.020;2023-05-10T13:27:40;17.60;99.90
26051;DHT22;13825;53.496;10.020;2023-05-10T13:30:08;17.60;99.90
26051;DHT22;13825;53.496;10.020;2023-05-10T13:32:37;17.70;99.90
26051;DHT22;13825;53.496;10.020;2023-05-10T13:35:05;17.60;99.90
26051;DHT22;13825;53.496;10.020;2023-05-10T13:37:32;17.70;99.90
26051;DHT22;13825;53.496;10.020;2023-05-10T13:40:02;17.60;99.90
26051;DHT22;13825;53.496;10.020;2023-05-10T13:42:29;17.50;99.90
26051;DHT22;13825;53.496;10.020;2023-05-10T13:44:58;17.40;99.90
26051;DHT22;13825;53.496;10.020;2023-05-10T13:47:28;17.50;99.90
26051;DHT22;13825;53.496;10.020;2023-05-10T13:49:55;17.60;99.90
26051;DHT22;13825;53.496;10.020;2023-05-10T13:52:23;17.70;99.90
26051;DHT22;13825;53.496;10.020;2023-05-10T13:54:50;17.50;99.90
26051;DHT22;13825;53.496;10.020;2023-05-10T13:57:20;17.60;99.90
26051;DHT22;13825;53.496;10.020;2023-05-10T13:59:47;17.90;99.90
26051;DHT22;13825;53.496;10.020;2023-05-10T14:02:16;18.20;99.90
26051;DHT22;13825;53.496;10.020;2023-05-10T14:04:43;18.30;99.90
26051;DHT22;13825;53.496;10.020;2023-05-10T14:07:10;18.40;99.90
26051;DHT22;13825;53.496;10.020;2023-05-10T14:09:40;18.50;99.90
26051;DHT22;13825;53.496;10.020;2023-05-10T14:12:08;18.60;99.90
26051;DHT22;13825;53.496;10.020;2023-05-10T14:14:35;18.70;99.90
26051;DHT22;13825;53.496;10.020;2023-05-10T14:17:02;18.70;99.90
26051;DHT22;13825;53.496;10.020;2023-05-10T14:19:30;18.70;99.90
26051;DHT22;13825;53.496;10.020;2023-05-10T14:22:02;18.60;99.90
26051;DHT22;13825;53.496;10.020;2023-05-10T14:24:29;18.60;99.90
26051;DHT22;13825;53.496;10.020;2023-05-10T14:26:57;18.50;99.90
26051;DHT22;13825;53.496;10.020;2023-05-10T14:29:24;18.20;99.90
26051;DHT22;13825;53.496;10.020;2023-05-10T14:31:51;18.10;99.90
26051;DHT22;13825;53.496;10.020;2023-05-10T14:34:21;18.10;99.90
26051;DHT22;13825;53.496;10.020;2023-05-10T14:36:52;18.10;99.90
26051;DHT22;13825;53.496;10.020;2023-05-10T14:39:19;18.00;99.90
26051;DHT22;13825;53.496;10.020;2023-05-10T14:41:47;18.00;99.90
26051;DHT22;13825;53.496;10.020;2023-05-10T14:44:14;17.90;99.90
26051;DHT22;13825;53.496;10.020;2023-05-10T14:46:44;17.70;99.90
26051;DHT22;13825;53.496;10.020;2023-05-10T14:49:11;17.70;99.90
26051;DHT22;13825;53.496;10.020;2023-05-10T14:51:38;17.60;99.90
26051;DHT22;13825;53.496;10.020;2023-05-10T14:54:06;17.60;99.90
26051;DHT22;13825;53.496;10.020;2023-05-10T14:56:35;17.70;99.90
26051;DHT22;13825;53.496;10.020;2023-05-10T14:59:03;17.50;99.90
26051;DHT22;13825;53.496;10.020;2023-05-10T15:01:30;17.70;99.90
26051;DHT22;13825;53.496;10.020;2023-05-10T15:04:00;17.80;99.90
26051;DHT22;13825;53.496;10.020;2023-05-10T15:06:31;18.20;99.90
26051;DHT22;13825;53.496;10.020;2023-05-10T15:08:58;18.70;99.90
26051;DHT22;13825;53.496;10.020;2023-05-10T15:11:29;19.20;99.90
26051;DHT22;13825;53.496;10.020;2023-05-10T15:13:56;19.40;99.90
26051;DHT22;13825;53.496;10.020;2023-05-10T15:16:23;19.20;99.90
26051;DHT22;13825;53.496;10.020;2023-05-10T15:18:57;19.10;99.90
26051;DHT22;13825;53.496;10.020;2023-05-10T15:21:27;18.90;99.90
26051;DHT22;13825;53.496;10.020;2023-05-10T15:23:58;18.70;99.90
26051;DHT22;13825;53.496;10.020;2023-05-10T15:26:25;18.70;99.90
26051;DHT22;13825;53.496;10.020;2023-05-10T15:28:54;18.60;99.90
26051;DHT22;13825;53.496;10.020;2023-05-10T15:31:21;18.30;99.90
26051;DHT22;13825;53.496;10.020;2023-05-10T15:33:48;18.20;99.90
26051;DHT22;13825;53.496;10.020;2023-05-10T15:36:15;18.10;99.90
26051;DHT22;13825;53.496;10.020;2023-05-10T15:38:43;17.70;99.90
26051;DHT22;13825;53.496;10.020;2023-05-10T15:41:10;17.50;99.90
26051;DHT22;13825;53.496;10.020;2023-05-10T15:43:38;17.10;99.90
26051;DHT22;13825;53.496;10.020;2023-05-10T15:46:07;17.00;99.90
26051;DHT22;13825;53.496;10.020;2023-05-10T15:48:34;16.90;99.90
26051;DHT22;13825;53.496;10.020;2023-05-10T15:51:10;16.80;99.90
26051;DHT22;13825;53.496;10.020;2023-05-10T15:53:37;16.70;99.90
26051;DHT22;13825;53.496;10.020;2023-05-10T15:56:05;16.60;99.90
26051;DHT22;13825;53.496;10.020;2023-05-10T15:58:32;16.40;99.90
26051;DHT22;13825;53.496;10.020;2023-05-10T16:00:59;16.30;99.90
26051;DHT22;13825;53.496;10.020;2023-05-10T16:03:30;15.90;99.90
26051;DHT22;13825;53.496;10.020;2023-05-10T16:06:06;16.00;99.90
26051;DHT22;13825;53.496;10.020;2023-05-10T16:08:33;15.70;99.90
26051;DHT22;13825;53.496;10.020;2023-05-10T16:11:01;15.60;99.90
26051;DHT22;13825;53.496;10.020;2023-05-10T16:13:28;15.50;99.90
26051;DHT22;13825;53.496;10.020;2023-05-10T16:15:55;15.50;99.90
26051;DHT22;13825;53.496;10.020;2023-05-10T16:18:22;15.50;99.90
26051;DHT22;13825;53.496;10.020;2023-05-10T16:20:52;15.50;99.90
26051;DHT22;13825;53.496;10.020;2023-05-10T16:23:19;15.60;99.90
26051;DHT22;13825;53.496;10.020;2023-05-10T16:25:46;15.60;99.90
26051;DHT22;13825;53.496;10.020;2023-05-10T16:28:13;15.60;99.90
26051;DHT22;13825;53.496;10.020;2023-05-10T16:30:40;15.70;99.90
26051;DHT22;13825;53.496;10.020;2023-05-10T16:33:07;15.70;99.90
26051;DHT22;13825;53.496;10.020;2023-05-10T16:35:34;15.80;99.90
26051;DHT22;13825;53.496;10.020;2023-05-10T16:38:02;15.80;99.90
26051;DHT22;13825;53.496;10.020;2023-05-10T16:40:29;15.80;99.90
26051;DHT22;13825;53.496;10.020;2023-05-10T16:42:56;15.70;99.90